Time;durP1;ratioP1;P1;durP2;ratioP2;P2;SDS_P1;SDS_P2;PMS_P1;PMS_P2;Temp;Humidity;BMP_temperature;BMP_pressure;BME280_temperature;BME280_humidity;BME280_pressure;Samples;Min_cycle;Max_cycle;Signal;HPM_P1;HPM_P2
2023/01/15 00:00:19;;;;;;;2.35;0.80;;;;;;;6.55;100.00;99201.50;699585;28;1221;-64
2023/01/15 00:00:39;;;;;;;2.23;0.70;;;;;;;6.56;100.00;99200.63;700539;28;4382;-64
2023/01/15 00:01:02;;;;;;;1.77;0.70;;;;;;;6.53;100.00;99198.94;700328;28;1282;-63
2023/01/15 00:01:33;;;;;;;2.13;0.77;;;;;;;6.46;100.00;99203.34;700260;28;1372;-63
2023/01/15 00:01:53;;;;;;;2.83;0.80;;;;;;;6.35;100.00;99200.00;700248;28;1080;-63
2023/01/15 00:02:16;;;;;;;2.47;0.80;;;;;;;6.45;100.00;99200.75;700431;28;1294;-63
2023/01/15 00:02:36;;;;;;;1.77;0.70;;;;;;;6.44;100.00;99207.69;700316;28;1341;-63
2023/01/15 00:02:57;;;;;;;2.38;0.80;;;;;;;6.31;100.00;99203.50;699381;28;1335;-63
2023/01/15 00:03:17;;;;;;;2.03;0.60;;;;;;;6.22;100.00;99204.47;699075;28;1217;-64
2023/01/15 00:03:37;;;;;;;2.08;0.77;;;;;;;6.32;100.00;99197.44;697888;28;4314;-62
2023/01/15 00:03:58;;;;;;;2.60;0.90;;;;;;;6.32;100.00;99210.44;695198;28;1222;-62
2023/01/15 00:04:19;;;;;;;2.33;0.80;;;;;;;6.30;100.00;99205.25;695917;28;1580;-63
2023/01/15 00:04:39;;;;;;;2.03;0.83;;;;;;;6.26;100.00;99207.91;695979;28;1202;-63
2023/01/15 00:05:01;;;;;;;2.60;1.00;;;;;;;6.26;100.00;99211.34;695110;28;1455;-63
2023/01/15 00:05:22;;;;;;;2.33;0.80;;;;;;;6.33;100.00;99203.50;696227;28;1294;-63
2023/01/15 00:05:42;;;;;;;2.60;0.73;;;;;;;6.37;100.00;99206.06;698861;28;1463;-62
2023/01/15 00:06:03;;;;;;;2.57;0.73;;;;;;;6.39;100.00;99213.81;699337;28;1380;-64
2023/01/15 00:06:25;;;;;;;2.33;0.70;;;;;;;6.36;100.00;99217.31;701283;28;1330;-63
2023/01/15 00:06:45;;;;;;;2.28;0.75;;;;;;;6.34;100.00;99208.69;700295;28;4530;-63
2023/01/15 00:07:05;;;;;;;2.97;0.80;;;;;;;6.29;100.00;99210.47;700204;28;1364;-60
2023/01/15 00:07:26;;;;;;;3.22;0.90;;;;;;;6.23;100.00;99211.41;697597;28;2242;-63
2023/01/15 00:07:46;;;;;;;2.20;0.80;;;;;;;6.20;100.00;99202.78;698121;28;1577;-62
2023/01/15 00:08:06;;;;;;;2.40;0.80;;;;;;;6.26;100.00;99206.16;697384;28;1277;-62
2023/01/15 00:08:28;;;;;;;1.73;0.80;;;;;;;6.26;100.00;99205.31;697480;28;1530;-63
2023/01/15 00:08:49;;;;;;;2.95;0.88;;;;;;;6.25;100.00;99211.38;695361;28;1595;-61
2023/01/15 00:09:14;;;;;;;2.60;0.85;;;;;;;6.21;100.00;99209.69;694451;28;1420;-62
2023/01/15 00:09:34;;;;;;;1.90;0.80;;;;;;;6.17;100.00;99206.25;694203;28;1210;-63
2023/01/15 00:09:55;;;;;;;1.90;0.80;;;;;;;6.23;100.00;99205.31;694273;28;4347;-63
2023/01/15 00:10:15;;;;;;;2.58;0.80;;;;;;;6.18;100.00;99205.38;694770;28;1325;-63
2023/01/15 00:10:36;;;;;;;2.60;0.80;;;;;;;6.17;100.00;99205.41;694610;28;1241;-63
2023/01/15 00:10:56;;;;;;;2.85;0.80;;;;;;;6.22;100.00;99204.47;697915;28;1265;-62
2023/01/15 00:11:18;;;;;;;3.77;1.00;;;;;;;6.18;100.00;99207.97;698155;28;1300;-63
2023/01/15 00:11:38;;;;;;;2.40;0.77;;;;;;;6.25;100.00;99211.38;697750;28;1178;-63
2023/01/15 00:11:59;;;;;;;1.80;0.70;;;;;;;6.27;100.00;99207.00;697347;28;1210;-62
2023/01/15 00:12:20;;;;;;;3.40;0.90;;;;;;;6.23;100.00;99215.69;697960;28;1253;-60
2023/01/15 00:12:40;;;;;;;3.30;0.80;;;;;;;6.24;100.00;99212.25;698057;28;4582;-61
2023/01/15 00:13:00;;;;;;;3.37;0.80;;;;;;;6.14;100.00;99212.31;698083;28;1389;-64
2023/01/15 00:13:21;;;;;;;3.17;0.90;;;;;;;6.13;100.00;99208.03;697884;28;1404;-63
2023/01/15 00:13:42;;;;;;;3.72;1.08;;;;;;;6.03;100.00;99206.38;697740;28;1261;-62
2023/01/15 00:14:03;;;;;;;3.42;1.20;;;;;;;5.97;100.00;99211.63;694678;28;1639;-62
2023/01/15 00:14:23;;;;;;;2.23;1.10;;;;;;;5.94;100.00;99211.63;692189;28;1521;-62
2023/01/15 00:14:44;;;;;;;2.30;0.90;;;;;;;5.95;100.00;99205.56;694755;28;1520;-63
2023/01/15 00:15:05;;;;;;;2.67;0.90;;;;;;;5.97;100.00;99215.09;694068;28;1654;-62
2023/01/15 00:15:26;;;;;;;1.75;0.80;;;;;;;5.93;100.00;99208.19;694250;28;1577;-61
2023/01/15 00:15:46;;;;;;;2.50;0.90;;;;;;;5.89;100.00;99213.41;694772;28;4595;-63
2023/01/15 00:16:13;;;;;;;3.28;1.05;;;;;;;5.96;100.00;99221.13;699168;28;1301;-63
2023/01/15 00:16:33;;;;;;;2.88;0.93;;;;;;;5.88;100.00;99215.13;700463;28;1090;-63
2023/01/15 00:16:53;;;;;;;2.80;0.90;;;;;;;5.91;100.00;99209.06;700065;28;1082;-63
2023/01/15 00:17:15;;;;;;;2.40;0.70;;;;;;;5.95;100.00;99221.13;699996;28;1128;-64
2023/01/15 00:17:35;;;;;;;3.10;0.73;;;;;;;5.96;100.00;99220.25;700510;28;1107;-63
2023/01/15 00:17:56;;;;;;;2.25;0.75;;;;;;;5.92;100.00;99211.63;701252;28;1198;-63
2023/01/15 00:18:16;;;;;;;3.27;0.80;;;;;;;5.97;100.00;99217.69;700881;28;1252;-64
2023/01/15 00:18:37;;;;;;;2.33;0.80;;;;;;;6.07;100.00;99222.78;701298;28;1495;-64
2023/01/15 00:19:00;;;;;;;3.40;0.80;;;;;;;6.13;100.00;99228.78;700384;28;4317;-64
2023/01/15 00:19:20;;;;;;;4.28;1.00;;;;;;;6.17;100.00;99221.81;700758;28;1500;-63
2023/01/15 00:19:41;;;;;;;3.08;0.90;;;;;;;6.13;100.00;99213.22;701642;28;1439;-65
2023/01/15 00:20:01;;;;;;;1.77;0.80;;;;;;;6.11;100.00;99222.75;700117;28;3556;-64
2023/01/15 00:20:22;;;;;;;2.90;0.90;;;;;;;6.20;100.00;99208.81;701427;28;1265;-64
2023/01/15 00:20:42;;;;;;;2.78;1.00;;;;;;;6.20;100.00;99213.16;701102;28;1221;-62
2023/01/15 00:21:06;;;;;;;4.10;0.90;;;;;;;6.17;100.00;99211.44;700433;28;1399;-63
2023/01/15 00:21:27;;;;;;;2.50;0.70;;;;;;;6.14;100.00;99233.09;700275;28;1288;-63
2023/01/15 00:21:48;;;;;;;2.33;0.82;;;;;;;6.18;100.00;99220.09;700642;28;4375;-64
2023/01/15 00:22:08;;;;;;;2.17;0.85;;;;;;;6.19;100.00;99220.09;700268;28;1203;-64
2023/01/15 00:22:29;;;;;;;2.90;0.70;;;;;;;6.20;100.00;99226.13;701311;28;1146;-63
2023/01/15 00:22:49;;;;;;;3.22;0.80;;;;;;;6.18;100.00;99225.28;700432;28;1135;-64
2023/01/15 00:27:37;;;;;;;2.00;0.73;;;;;;;6.11;100.00;99229.69;701012;28;1280;-64
2023/01/15 00:27:48;;;;;;;3.25;0.80;;;;;;;6.13;100.00;99257.34;698281;28;4604;-63
2023/01/15 00:28:13;;;;;;;2.95;0.80;;;;;;;6.14;100.00;99247.81;696756;28;1459;-63
2023/01/15 00:28:33;;;;;;;2.03;0.70;;;;;;;6.16;100.00;99245.19;697475;28;1838;-65
2023/01/15 00:28:53;;;;;;;2.93;0.77;;;;;;;6.08;100.00;99243.53;695490;28;1220;-64
2023/01/15 00:29:15;;;;;;;2.17;0.70;;;;;;;6.08;100.00;99253.06;694304;28;1138;-65
2023/01/15 00:29:36;;;;;;;2.78;0.80;;;;;;;6.00;100.00;99254.88;695070;28;1060;-65
2023/01/15 00:29:57;;;;;;;3.45;0.90;;;;;;;6.04;100.00;99251.38;687719;28;2089;-65
2023/01/15 00:30:18;;;;;;;2.13;0.77;;;;;;;5.90;100.00;99254.06;688461;28;1293;-64
2023/01/15 00:30:41;;;;;;;4.03;0.90;;;;;;;5.90;100.00;99247.13;691334;28;4380;-64
2023/01/15 00:31:01;;;;;;;4.70;0.90;;;;;;;5.84;100.00;99243.72;693513;28;1164;-66
2023/01/15 00:31:23;;;;;;;3.38;0.98;;;;;;;5.88;100.00;99243.66;694524;28;1416;-64
2023/01/15 00:31:52;;;;;;;3.55;0.80;;;;;;;5.97;100.00;99232.38;696124;28;1328;-63
2023/01/15 00:32:12;;;;;;;2.83;0.70;;;;;;;5.99;100.00;99243.59;700475;28;1082;-63
2023/01/15 00:32:33;;;;;;;2.87;0.80;;;;;;;5.88;100.00;99240.22;700270;28;1166;-63
2023/01/15 00:32:53;;;;;;;2.78;0.80;;;;;;;5.85;100.00;99238.50;697286;28;1886;-63
2023/01/15 00:33:16;;;;;;;1.90;0.73;;;;;;;5.89;100.00;99239.34;697830;28;1209;-63
2023/01/15 00:33:36;;;;;;;3.17;0.77;;;;;;;5.94;100.00;99240.16;696492;28;1155;-64
2023/01/15 00:33:56;;;;;;;3.77;0.80;;;;;;;5.91;100.00;99245.38;694803;28;4393;-61
2023/01/15 00:34:17;;;;;;;2.72;0.70;;;;;;;5.92;100.00;99241.91;693039;28;1261;-64
2023/01/15 00:34:38;;;;;;;2.53;0.80;;;;;;;5.88;100.00;99241.06;691207;28;1289;-64
2023/01/15 00:34:59;;;;;;;2.63;0.80;;;;;;;5.90;100.00;99238.50;693406;28;1251;-63
2023/01/15 00:35:22;;;;;;;2.47;0.80;;;;;;;5.91;100.00;99247.97;693083;28;1293;-63
2023/01/15 00:35:42;;;;;;;2.60;0.80;;;;;;;5.90;100.00;99249.72;693391;28;1390;-63
2023/01/15 00:36:03;;;;;;;2.63;0.80;;;;;;;5.80;100.00;99248.94;696153;28;1304;-64
2023/01/15 00:36:24;;;;;;;3.15;0.90;;;;;;;5.82;100.00;99246.31;697746;28;1138;-64
2023/01/15 00:36:45;;;;;;;4.40;0.90;;;;;;;5.85;100.00;99240.25;697373;28;4463;-64
2023/01/15 00:37:05;;;;;;;4.33;0.93;;;;;;;5.89;100.00;99241.94;697646;28;1286;-63
2023/01/15 00:37:26;;;;;;;4.25;0.90;;;;;;;5.85;100.00;99246.28;696168;28;1456;-64
2023/01/15 00:37:48;;;;;;;4.07;0.90;;;;;;;5.83;100.00;99236.78;692926;28;1614;-62
2023/01/15 00:38:08;;;;;;;3.30;0.90;;;;;;;5.79;100.00;99243.75;690003;28;2048;-63
2023/01/15 00:38:28;;;;;;;3.25;0.90;;;;;;;5.84;100.00;99238.53;690397;28;1159;-63
2023/01/15 00:38:49;;;;;;;2.67;0.70;;;;;;;5.88;100.00;99240.22;690809;28;5031;-64
2023/01/15 00:39:09;;;;;;;2.95;0.60;;;;;;;5.93;100.00;99238.47;690494;28;1182;-63
2023/01/15 00:39:29;;;;;;;2.33;0.80;;;;;;;5.84;100.00;99246.31;692932;28;1428;-64
2023/01/15 00:39:50;;;;;;;2.85;0.80;;;;;;;5.82;100.00;99241.13;692297;28;4594;-64
2023/01/15 00:40:11;;;;;;;3.00;0.80;;;;;;;5.80;100.00;99243.75;692818;28;1214;-64
2023/01/15 00:40:32;;;;;;;3.03;0.73;;;;;;;5.84;100.00;99243.72;690379;28;1448;-65
2023/01/15 00:40:52;;;;;;;2.90;0.87;;;;;;;5.85;100.00;99250.63;688024;28;1316;-64
2023/01/15 00:41:13;;;;;;;2.60;0.70;;;;;;;5.83;100.00;99252.34;689162;28;1378;-64
2023/01/15 00:41:33;;;;;;;2.30;0.70;;;;;;;5.80;100.00;99248.94;689016;28;1238;-64
2023/01/15 00:41:55;;;;;;;3.25;0.90;;;;;;;5.76;100.00;99248.94;692979;28;1150;-64
2023/01/15 00:42:16;;;;;;;3.08;0.75;;;;;;;5.74;100.00;99259.34;693003;28;1174;-61
2023/01/15 00:42:39;;;;;;;3.75;0.90;;;;;;;5.84;100.00;99249.75;688994;28;1150;-63
2023/01/15 00:42:59;;;;;;;4.05;0.95;;;;;;;5.89;100.00;99254.91;693932;28;4617;-64
2023/01/15 00:43:19;;;;;;;3.67;1.05;;;;;;;5.87;100.00;99254.06;695445;28;1092;-65
2023/01/15 00:43:40;;;;;;;3.77;1.00;;;;;;;5.83;100.00;99258.44;695310;28;1322;-64
2023/01/15 00:44:00;;;;;;;2.08;0.80;;;;;;;5.78;100.00;99245.47;691950;28;1528;-65
2023/01/15 00:44:21;;;;;;;4.57;1.00;;;;;;;5.80;100.00;99254.13;693548;28;1235;-64
2023/01/15 00:44:42;;;;;;;5.13;1.08;;;;;;;5.83;100.00;99247.16;697600;28;1424;-64
2023/01/15 00:45:08;;;;;;;3.50;1.00;;;;;;;5.80;100.00;99255.81;697503;28;1282;-63
2023/01/15 00:45:29;;;;;;;3.53;1.00;;;;;;;5.76;100.00;99252.41;696176;28;1381;-64
2023/01/15 00:45:50;;;;;;;3.33;1.20;;;;;;;5.67;100.00;99244.69;693670;28;4423;-64
2023/01/15 00:46:11;;;;;;;2.72;1.10;;;;;;;5.69;100.00;99249.88;694409;28;1247;-64
2023/01/15 00:46:31;;;;;;;2.40;0.80;;;;;;;5.68;100.00;99246.44;693891;28;1155;-64
2023/01/15 00:46:52;;;;;;;2.45;0.90;;;;;;;5.67;100.00;99249.88;694287;28;1338;-64
2023/01/15 00:47:14;;;;;;;2.85;0.90;;;;;;;5.69;100.00;99250.75;692373;28;1308;-65
2023/01/15 00:47:36;;;;;;;3.05;0.90;;;;;;;5.69;100.00;99253.34;693938;28;1144;-64
2023/01/15 00:47:57;;;;;;;2.67;0.90;;;;;;;5.61;100.00;99247.34;695173;28;1381;-64
2023/01/15 00:48:20;;;;;;;2.40;0.80;;;;;;;5.56;100.00;99249.13;695859;28;1384;-64
2023/01/15 00:48:41;;;;;;;3.20;0.90;;;;;;;5.58;100.00;99257.72;695271;28;4296;-65
2023/01/15 00:49:01;;;;;;;3.22;0.80;;;;;;;5.59;100.00;99254.25;699410;28;1221;-64
2023/01/15 00:49:22;;;;;;;3.60;0.80;;;;;;;5.58;100.00;99249.94;697229;28;1460;-64
2023/01/15 00:49:44;;;;;;;2.50;0.85;;;;;;;5.68;100.00;99243.84;696557;28;1253;-64
2023/01/15 00:50:06;;;;;;;2.50;0.90;;;;;;;5.69;100.00;99255.94;697057;28;1313;-63
2023/01/15 00:50:27;;;;;;;2.72;0.80;;;;;;;5.71;100.00;99246.41;698170;28;1085;-63
2023/01/15 00:50:48;;;;;;;3.57;0.90;;;;;;;5.69;100.00;99249.88;697233;28;1542;-65
2023/01/15 00:51:08;;;;;;;3.60;1.00;;;;;;;5.76;100.00;99247.22;697798;28;1312;-63
2023/01/15 00:51:28;;;;;;;2.90;0.97;;;;;;;5.72;100.00;99250.72;700832;28;1142;-64
2023/01/15 00:51:49;;;;;;;2.47;0.80;;;;;;;5.70;100.00;99249.84;696479;28;4297;-63
2023/01/15 00:52:13;;;;;;;2.25;0.85;;;;;;;5.67;100.00;99249.88;698587;28;1186;-65
2023/01/15 00:52:33;;;;;;;3.75;0.88;;;;;;;5.68;100.00;99253.38;695825;28;2060;-64
2023/01/15 00:52:54;;;;;;;3.63;0.80;;;;;;;5.74;100.00;99254.16;694970;28;1914;-64
2023/01/15 00:53:14;;;;;;;3.20;0.80;;;;;;;5.75;100.00;99248.09;695786;28;1338;-64
2023/01/15 00:53:35;;;;;;;4.30;0.90;;;;;;;5.66;100.00;99245.56;695802;28;1150;-64
2023/01/15 00:53:55;;;;;;;2.67;0.77;;;;;;;5.66;100.00;99240.38;695842;28;1289;-63
2023/01/15 00:54:16;;;;;;;2.10;0.73;;;;;;;5.65;100.00;99238.69;696050;28;1134;-64
2023/01/15 00:54:37;;;;;;;2.70;0.80;;;;;;;5.62;100.00;99244.75;695844;28;1298;-64
2023/01/15 00:54:57;;;;;;;2.75;0.80;;;;;;;5.62;100.00;99239.56;694577;28;4512;-64
2023/01/15 00:55:18;;;;;;;3.10;0.80;;;;;;;5.55;100.00;99247.38;696047;28;1332;-63
2023/01/15 00:55:38;;;;;;;1.52;0.70;;;;;;;5.53;100.00;99242.22;697236;28;1230;-63
2023/01/15 00:55:59;;;;;;;2.33;0.80;;;;;;;5.49;100.00;99244.84;697054;28;1310;-64
2023/01/15 00:56:21;;;;;;;2.60;0.85;;;;;;;5.53;100.00;99239.63;697934;28;1329;-66
2023/01/15 00:56:41;;;;;;;2.93;0.80;;;;;;;5.53;100.00;99244.81;698107;28;1356;-64
2023/01/15 00:57:02;;;;;;;2.73;0.80;;;;;;;5.51;100.00;99237.91;696975;28;1312;-65
2023/01/15 00:57:22;;;;;;;2.33;0.90;;;;;;;5.51;100.00;99240.50;694701;28;1413;-64
2023/01/15 00:57:42;;;;;;;2.17;0.80;;;;;;;5.59;100.00;99237.00;693862;28;4371;-63
2023/01/15 00:58:03;;;;;;;3.87;0.90;;;;;;;5.59;100.00;99233.53;695001;28;1083;-64
2023/01/15 00:58:23;;;;;;;2.43;0.90;;;;;;;5.57;100.00;99241.31;695736;28;1456;-64
2023/01/15 00:58:45;;;;;;;5.70;0.80;;;;;;;5.58;100.00;99234.38;695940;28;1319;-64
2023/01/15 00:59:06;;;;;;;2.75;0.80;;;;;;;5.56;100.00;99229.22;693594;28;1479;-64
2023/01/15 00:59:26;;;;;;;2.80;0.80;;;;;;;5.50;100.00;99228.41;694102;28;1513;-64
2023/01/15 00:59:47;;;;;;;3.60;0.93;;;;;;;5.41;100.00;99235.41;690333;28;1460;-64
2023/01/15 01:00:08;;;;;;;3.25;1.00;;;;;;;5.42;100.00;99233.66;689674;28;1381;-64
2023/01/15 01:00:28;;;;;;;2.95;0.80;;;;;;;5.42;100.00;99226.72;689219;28;1294;-63
2023/01/15 01:00:55;;;;;;;1.73;0.80;;;;;;;5.44;100.00;99235.38;690946;28;4489;-64
2023/01/15 01:01:15;;;;;;;2.90;1.08;;;;;;;5.36;100.00;99231.97;692928;28;1419;-64
2023/01/15 01:01:36;;;;;;;2.77;0.83;;;;;;;5.35;100.00;99240.59;696249;28;1138;-64
2023/01/15 01:01:56;;;;;;;2.63;0.97;;;;;;;5.37;100.00;99238.00;694353;28;1242;-64
2023/01/15 01:02:17;;;;;;;3.23;1.03;;;;;;;5.32;100.00;99245.81;696848;28;1182;-64
2023/01/15 01:02:37;;;;;;;3.25;1.00;;;;;;;5.29;100.00;99238.91;692382;28;1482;-63
2023/01/15 01:02:57;;;;;;;3.97;0.90;;;;;;;5.34;100.00;99246.66;689613;28;1489;-64
2023/01/15 01:03:18;;;;;;;4.22;1.10;;;;;;;5.36;100.00;99250.09;687178;28;1298;-62
2023/01/15 01:03:38;;;;;;;3.13;1.00;;;;;;;5.39;100.00;99244.91;686454;28;4459;-63
2023/01/15 01:03:59;;;;;;;2.15;0.90;;;;;;;5.38;100.00;99243.16;689234;28;1250;-64
2023/01/15 01:04:20;;;;;;;4.93;0.90;;;;;;;5.33;100.00;99241.47;690475;28;1281;-64
2023/01/15 01:04:40;;;;;;;4.33;0.90;;;;;;;5.35;100.00;99245.78;693170;28;1443;-63
2023/01/15 01:05:00;;;;;;;3.10;0.83;;;;;;;5.26;100.00;99245.84;692745;28;1354;-64
2023/01/15 01:05:21;;;;;;;4.73;1.00;;;;;;;5.31;100.00;99238.91;694505;28;1126;-64
2023/01/15 01:05:41;;;;;;;2.92;0.95;;;;;;;5.34;100.00;99244.06;694890;28;1330;-64
2023/01/15 01:06:03;;;;;;;1.80;1.00;;;;;;;5.33;100.00;99236.28;693116;28;1317;-63
2023/01/15 01:06:23;;;;;;;2.42;0.90;;;;;;;5.29;100.00;99235.47;693959;28;1827;-64
2023/01/15 01:06:44;;;;;;;2.78;1.00;;;;;;;5.24;100.00;99238.06;693533;28;4402;-64
2023/01/15 01:07:05;;;;;;;3.27;0.90;;;;;;;5.20;100.00;99245.88;693597;28;1227;-62
2023/01/15 01:07:25;;;;;;;2.87;0.90;;;;;;;5.22;100.00;99246.72;693924;28;1421;-64
2023/01/15 01:07:46;;;;;;;3.57;0.90;;;;;;;5.36;100.00;99237.16;694720;28;1479;-65
2023/01/15 01:08:06;;;;;;;4.23;0.90;;;;;;;5.39;100.00;99242.31;694579;28;1433;-64
2023/01/15 01:08:27;;;;;;;4.60;1.00;;;;;;;5.38;100.00;99234.53;696048;28;1360;-64
2023/01/15 01:08:48;;;;;;;4.80;1.08;;;;;;;5.33;100.00;99239.75;696061;28;1381;-64
2023/01/15 01:09:17;;;;;;;3.53;1.00;;;;;;;5.24;100.00;99245.00;695460;28;1415;-64
2023/01/15 01:09:38;;;;;;;3.35;1.00;;;;;;;5.11;100.00;99245.06;694972;28;4530;-64
2023/01/15 01:09:58;;;;;;;3.42;0.98;;;;;;;5.15;100.00;99243.31;694604;28;1250;-63
2023/01/15 01:10:19;;;;;;;3.43;1.10;;;;;;;5.18;100.00;99245.91;692874;28;1821;-64
2023/01/15 01:10:39;;;;;;;3.47;1.02;;;;;;;5.19;100.00;99246.75;693030;28;1141;-64
2023/01/15 01:11:06;;;;;;;3.40;1.20;;;;;;;5.16;100.00;99254.53;694410;28;1321;-64
2023/01/15 01:11:31;;;;;;;4.82;1.23;;;;;;;5.16;100.00;99245.03;694971;28;1463;-64
2023/01/15 01:11:52;;;;;;;3.35;1.08;;;;;;;5.18;100.00;99245.00;693235;28;1411;-64
2023/01/15 01:12:12;;;;;;;4.88;1.00;;;;;;;5.14;100.00;99246.78;695621;28;1343;-63
2023/01/15 01:12:33;;;;;;;3.80;1.03;;;;;;;5.23;100.00;99244.16;695683;28;1522;-63
2023/01/15 01:12:55;;;;;;;3.92;1.02;;;;;;;5.22;100.00;99238.94;692107;28;4502;-64
2023/01/15 01:13:15;;;;;;;2.50;1.00;;;;;;;5.19;100.00;99244.16;689727;28;1159;-64
2023/01/15 01:13:36;;;;;;;4.93;1.23;;;;;;;5.20;100.00;99241.56;685948;28;1363;-64
2023/01/15 01:13:57;;;;;;;5.10;1.30;;;;;;;5.17;100.00;99238.97;689222;28;1394;-63
2023/01/15 01:14:17;;;;;;;3.13;1.00;;;;;;;5.19;100.00;99234.66;688225;28;1314;-64
2023/01/15 01:14:38;;;;;;;2.67;1.05;;;;;;;5.17;100.00;99236.41;690357;28;1363;-64
2023/01/15 01:14:59;;;;;;;1.88;0.90;;;;;;;5.19;100.00;99233.78;688046;28;1079;-63
2023/01/15 01:15:20;;;;;;;2.23;0.80;;;;;;;5.16;100.00;99228.63;687610;28;1304;-64
2023/01/15 01:15:40;;;;;;;2.15;0.80;;;;;;;5.24;100.00;99227.72;688299;28;4412;-65
2023/01/15 01:16:01;;;;;;;2.53;0.90;;;;;;;5.25;100.00;99218.22;690357;28;1294;-64
2023/01/15 01:16:26;;;;;;;2.28;0.98;;;;;;;5.17;100.00;99217.41;691908;28;3248;-65
2023/01/15 01:16:46;;;;;;;2.08;0.90;;;;;;;5.28;100.00;99207.84;696474;28;1371;-64
2023/01/15 01:17:08;;;;;;;3.00;0.80;;;;;;;5.30;100.00;99208.66;698317;28;1537;-64
2023/01/15 01:17:28;;;;;;;2.95;0.95;;;;;;;5.28;100.00;99205.25;698123;28;1431;-64
2023/01/15 01:17:48;;;;;;;3.73;0.90;;;;;;;5.31;100.00;99199.19;695125;28;1281;-63
2023/01/15 01:18:09;;;;;;;3.22;0.98;;;;;;;5.39;100.00;99200.00;692285;28;1210;-66
2023/01/15 01:18:29;;;;;;;3.03;0.90;;;;;;;5.44;100.00;99208.56;693102;28;1421;-64
2023/01/15 01:18:51;;;;;;;2.97;0.80;;;;;;;5.41;100.00;99206.00;687043;28;4500;-64
2023/01/15 01:19:14;;;;;;;3.25;0.90;;;;;;;5.40;100.00;99202.56;686747;28;1092;-64
2023/01/15 01:19:35;;;;;;;3.50;0.82;;;;;;;5.43;100.00;99199.09;690142;28;1147;-63
2023/01/15 01:19:55;;;;;;;3.33;0.80;;;;;;;5.43;100.00;99202.53;692277;28;1269;-63
2023/01/15 01:20:18;;;;;;;3.77;0.80;;;;;;;5.40;100.00;99202.56;691294;28;1246;-64
2023/01/15 01:20:41;;;;;;;3.60;1.20;;;;;;;5.29;100.00;99204.38;693640;28;1266;-64
2023/01/15 01:21:03;;;;;;;3.38;1.00;;;;;;;5.25;100.00;99203.53;696685;28;1301;-65
2023/01/15 01:21:25;;;;;;;4.15;0.90;;;;;;;5.34;100.00;99212.97;697064;28;1412;-64
2023/01/15 01:21:46;;;;;;;3.72;0.90;;;;;;;5.34;100.00;99218.13;695167;28;4385;-64
2023/01/15 01:22:07;;;;;;;2.38;0.85;;;;;;;5.27;100.00;99211.28;696762;28;1504;-64
2023/01/15 01:22:28;;;;;;;2.83;0.77;;;;;;;5.25;100.00;99213.88;698038;28;1400;-63
2023/01/15 01:22:48;;;;;;;3.08;0.90;;;;;;;5.20;100.00;99217.38;697928;28;1341;-65
2023/01/15 01:23:08;;;;;;;4.07;0.93;;;;;;;5.17;100.00;99220.84;692067;28;1269;-64
2023/01/15 01:23:30;;;;;;;3.38;0.90;;;;;;;5.24;100.00;99219.09;693338;28;1527;-64
2023/01/15 01:23:51;;;;;;;2.22;0.80;;;;;;;5.22;100.00;99219.09;695626;28;1501;-64
2023/01/15 01:24:15;;;;;;;2.97;0.90;;;;;;;5.25;100.00;99219.06;691014;28;1236;-64
2023/01/15 01:24:35;;;;;;;3.25;0.80;;;;;;;5.29;100.00;99220.78;692390;28;1290;-63
2023/01/15 01:24:55;;;;;;;2.63;0.80;;;;;;;5.25;100.00;99223.41;692427;28;4497;-63
2023/01/15 01:25:16;;;;;;;3.23;0.83;;;;;;;5.26;100.00;99228.56;696607;28;1194;-65
2023/01/15 01:25:37;;;;;;;2.88;0.80;;;;;;;5.25;100.00;99224.25;697758;28;1253;-64
2023/01/15 01:25:57;;;;;;;3.17;0.80;;;;;;;5.26;100.00;99225.09;695504;28;1237;-64
2023/01/15 01:26:18;;;;;;;2.50;0.75;;;;;;;5.19;100.00;99233.78;697985;28;1296;-64
2023/01/15 01:26:38;;;;;;;2.50;0.70;;;;;;;5.20;100.00;99230.34;695488;28;1270;-64
2023/01/15 01:26:59;;;;;;;2.97;0.90;;;;;;;5.16;100.00;99226.88;691892;28;1475;-64
2023/01/15 01:27:19;;;;;;;3.67;0.95;;;;;;;5.06;100.00;99227.81;692850;28;1365;-64
2023/01/15 01:27:43;;;;;;;3.93;0.90;;;;;;;4.99;100.00;99228.72;692433;28;4393;-65
2023/01/15 01:28:03;;;;;;;3.70;0.85;;;;;;;4.95;100.00;99225.28;690878;28;1440;-64
2023/01/15 01:28:24;;;;;;;3.23;0.73;;;;;;;4.93;100.00;99227.03;690072;28;1492;-65
2023/01/15 01:28:51;;;;;;;3.53;0.73;;;;;;;4.99;100.00;99216.63;690598;28;1358;-65
2023/01/15 01:29:12;;;;;;;3.90;0.80;;;;;;;4.93;100.00;99217.53;692030;28;1736;-65
2023/01/15 01:29:32;;;;;;;3.88;0.88;;;;;;;4.95;100.00;99217.50;692492;28;1205;-64
2023/01/15 01:29:53;;;;;;;2.60;0.80;;;;;;;4.92;100.00;99220.97;689816;28;1632;-65
2023/01/15 01:30:14;;;;;;;2.57;0.80;;;;;;;4.99;100.00;99219.22;690808;28;1220;-64
2023/01/15 01:30:37;;;;;;;2.90;0.88;;;;;;;5.07;100.00;99221.78;691116;28;1151;-65
2023/01/15 01:30:57;;;;;;;2.28;0.82;;;;;;;5.12;100.00;99217.41;692555;28;6396;-64
2023/01/15 01:31:18;;;;;;;2.55;0.98;;;;;;;5.10;100.00;99222.59;693618;28;1265;-64
2023/01/15 01:31:38;;;;;;;4.20;1.03;;;;;;;5.06;100.00;99217.47;695206;28;1345;-65
2023/01/15 01:31:58;;;;;;;4.28;1.10;;;;;;;5.04;100.00;99212.28;696291;28;1289;-64
2023/01/15 01:32:19;;;;;;;3.20;0.80;;;;;;;5.08;100.00;99211.41;693770;28;1325;-65
2023/01/15 01:32:43;;;;;;;2.42;0.70;;;;;;;5.08;100.00;99214.00;698462;28;1921;-65
2023/01/15 01:33:04;;;;;;;2.42;0.80;;;;;;;5.08;100.00;99216.59;695618;28;1453;-65
2023/01/15 01:33:24;;;;;;;4.05;1.10;;;;;;;5.10;100.00;99212.25;695714;28;1309;-65
2023/01/15 01:33:47;;;;;;;3.57;1.00;;;;;;;5.09;100.00;99215.69;695211;28;4368;-65
2023/01/15 01:34:09;;;;;;;2.33;0.80;;;;;;;5.11;100.00;99207.94;695565;28;1429;-64
2023/01/15 01:34:29;;;;;;;3.70;0.90;;;;;;;5.10;100.00;99214.84;697441;28;1202;-65
2023/01/15 01:34:50;;;;;;;3.57;1.00;;;;;;;5.06;100.00;99212.28;695792;28;1237;-65
2023/01/15 01:35:10;;;;;;;3.37;1.00;;;;;;;5.17;100.00;99209.63;696155;28;1244;-65
2023/01/15 01:35:31;;;;;;;5.10;1.10;;;;;;;5.24;100.00;99198.34;697172;28;1264;-64
2023/01/15 01:35:52;;;;;;;3.58;1.00;;;;;;;5.23;100.00;99199.22;697628;28;1364;-64
2023/01/15 01:36:12;;;;;;;3.90;0.90;;;;;;;5.20;100.00;99200.09;696748;28;1127;-65
2023/01/15 01:36:35;;;;;;;2.50;0.80;;;;;;;5.20;100.00;99204.44;697301;28;1253;-64
2023/01/15 01:36:55;;;;;;;2.40;0.90;;;;;;;5.17;100.00;99200.13;697580;28;4402;-64
2023/01/15 01:37:16;;;;;;;3.00;0.90;;;;;;;5.21;100.00;99203.56;698642;28;1157;-65
2023/01/15 01:37:36;;;;;;;3.50;1.00;;;;;;;5.19;100.00;99207.88;698859;28;1539;-65
2023/01/15 01:37:56;;;;;;;3.37;0.93;;;;;;;5.11;100.00;99213.97;700984;28;1284;-64
2023/01/15 01:38:17;;;;;;;2.63;0.90;;;;;;;5.06;100.00;99220.91;697872;28;2005;-65
2023/01/15 01:38:38;;;;;;;2.22;0.90;;;;;;;5.03;100.00;99223.53;698296;28;1424;-64
2023/01/15 01:38:59;;;;;;;3.47;1.00;;;;;;;5.02;100.00;99226.97;697949;28;5562;-63
2023/01/15 01:39:20;;;;;;;4.53;1.10;;;;;;;5.00;100.00;99228.72;697845;28;1175;-65
2023/01/15 01:39:40;;;;;;;3.33;1.00;;;;;;;5.04;100.00;99230.44;697077;28;4383;-64
2023/01/15 01:40:01;;;;;;;2.88;0.95;;;;;;;5.05;100.00;99226.97;697873;28;1234;-64
2023/01/15 01:40:21;;;;;;;3.87;1.10;;;;;;;5.09;100.00;99231.25;701349;28;1292;-65
2023/01/15 01:40:42;;;;;;;3.92;0.90;;;;;;;5.07;100.00;99235.59;700401;28;1300;-65
2023/01/15 01:41:02;;;;;;;4.13;0.90;;;;;;;5.00;100.00;99240.78;700730;28;1434;-65
2023/01/15 01:41:23;;;;;;;2.80;0.80;;;;;;;4.97;100.00;99240.81;696391;28;1580;-65
2023/01/15 01:41:47;;;;;;;2.92;0.90;;;;;;;4.98;100.00;99245.97;694282;28;1432;-65
2023/01/15 01:42:14;;;;;;;2.22;0.90;;;;;;;4.98;100.00;99245.97;695864;28;1477;-64
2023/01/15 01:42:34;;;;;;;3.13;0.90;;;;;;;4.95;100.00;99246.84;695657;28;1179;-64
2023/01/15 01:42:55;;;;;;;3.27;0.90;;;;;;;5.00;100.00;99243.38;694934;28;4333;-65
2023/01/15 01:43:21;;;;;;;1.90;0.90;;;;;;;5.07;100.00;99240.75;696052;28;1215;-65
2023/01/15 01:43:54;;;;;;;2.10;0.90;;;;;;;5.23;100.00;99235.50;699266;28;1484;-65
2023/01/15 01:44:33;;;;;;;3.67;1.00;;;;;;;5.23;100.00;99238.97;699628;28;1404;-65
2023/01/15 01:45:01;;;;;;;3.15;0.80;;;;;;;5.33;100.00;99224.22;700241;28;1181;-65
2023/01/15 01:45:27;;;;;;;3.85;1.00;;;;;;;5.29;100.00;99225.97;698246;28;1361;-64
2023/01/15 01:45:47;;;;;;;3.15;1.05;;;;;;;5.24;100.00;99232.03;692624;28;4356;-65
2023/01/15 01:46:08;;;;;;;3.33;0.90;;;;;;;5.26;100.00;99220.81;694429;28;1556;-64
2023/01/15 01:46:31;;;;;;;3.87;1.07;;;;;;;5.27;100.00;99226.84;693482;28;1432;-64
2023/01/15 01:46:51;;;;;;;3.15;1.00;;;;;;;5.27;100.00;99234.59;692965;28;1247;-65
2023/01/15 01:47:21;;;;;;;3.47;1.07;;;;;;;5.34;100.00;99227.66;690683;28;1104;-64